sensor_id;sensor_type;location;lat;lon;timestamp;pressure;altitude;pressure_sealevel;temperature
64470;BMP280;50854;48.538;14.352;2022-10-16T00:00:22;93613.03;;;11.83
64470;BMP280;50854;48.538;14.352;2022-10-16T00:01:23;93623.22;;;11.69
64470;BMP280;50854;48.538;14.352;2022-10-16T00:02:24;93612.38;;;11.69
64470;BMP280;50854;48.538;14.352;2022-10-16T00:03:24;93606.97;;;11.69
64470;BMP280;50854;48.538;14.352;2022-10-16T00:04:24;93612.16;;;11.67
64470;BMP280;50854;48.538;14.352;2022-10-16T00:05:24;93609.81;;;11.64
64470;BMP280;50854;48.538;14.352;2022-10-16T00:06:25;93602.94;;;11.63
64470;BMP280;50854;48.538;14.352;2022-10-16T00:07:26;93611.06;;;11.63
64470;BMP280;50854;48.538;14.352;2022-10-16T00:08:27;93611.56;;;11.61
64470;BMP280;50854;48.538;14.352;2022-10-16T00:09:27;93617.00;;;11.61
64470;BMP280;50854;48.538;14.352;2022-10-16T00:10:27;93609.41;;;11.60
64470;BMP280;50854;48.538;14.352;2022-10-16T00:11:29;93611.72;;;11.56
64470;BMP280;50854;48.538;14.352;2022-10-16T00:12:30;93610.97;;;11.55
64470;BMP280;50854;48.538;14.352;2022-10-16T00:13:31;93614.34;;;11.48
64470;BMP280;50854;48.538;14.352;2022-10-16T00:14:31;93615.38;;;11.45
64470;BMP280;50854;48.538;14.352;2022-10-16T00:15:40;93616.63;;;11.44
64470;BMP280;50854;48.538;14.352;2022-10-16T00:16:43;93609.75;;;11.43
64470;BMP280;50854;48.538;14.352;2022-10-16T00:17:43;93610.81;;;11.40
64470;BMP280;50854;48.538;14.352;2022-10-16T00:18:43;93610.28;;;11.41
64470;BMP280;50854;48.538;14.352;2022-10-16T00:19:43;93605.94;;;11.38
64470;BMP280;50854;48.538;14.352;2022-10-16T00:20:44;93610.38;;;11.36
64470;BMP280;50854;48.538;14.352;2022-10-16T00:21:44;93607.50;;;11.34
64470;BMP280;50854;48.538;14.352;2022-10-16T00:22:44;93604.09;;;11.33
64470;BMP280;50854;48.538;14.352;2022-10-16T00:23:45;93608.16;;;11.27
64470;BMP280;50854;48.538;14.352;2022-10-16T00:24:45;93603.66;;;11.29
64470;BMP280;50854;48.538;14.352;2022-10-16T00:25:53;93605.09;;;11.30
64470;BMP280;50854;48.538;14.352;2022-10-16T00:26:54;93607.63;;;11.28
64470;BMP280;50854;48.538;14.352;2022-10-16T00:27:54;93614.06;;;11.25
64470;BMP280;50854;48.538;14.352;2022-10-16T00:28:54;93612.44;;;11.22
64470;BMP280;50854;48.538;14.352;2022-10-16T00:29:54;93615.84;;;11.23
64470;BMP280;50854;48.538;14.352;2022-10-16T00:30:55;93619.28;;;11.23
64470;BMP280;50854;48.538;14.352;2022-10-16T00:31:55;93612.63;;;11.24
64470;BMP280;50854;48.538;14.352;2022-10-16T00:32:55;93619.81;;;11.21
64470;BMP280;50854;48.538;14.352;2022-10-16T00:33:56;93621.28;;;11.09
64470;BMP280;50854;48.538;14.352;2022-10-16T00:34:56;93624.22;;;11.11
64470;BMP280;50854;48.538;14.352;2022-10-16T00:35:59;93622.94;;;11.12
64470;BMP280;50854;48.538;14.352;2022-10-16T00:37:00;93623.13;;;11.14
64470;BMP280;50854;48.538;14.352;2022-10-16T00:38:00;93622.41;;;11.14
64470;BMP280;50854;48.538;14.352;2022-10-16T00:39:00;93621.88;;;11.15
64470;BMP280;50854;48.538;14.352;2022-10-16T00:40:01;93624.81;;;11.17
64470;BMP280;50854;48.538;14.352;2022-10-16T00:41:01;93616.47;;;11.15
64470;BMP280;50854;48.538;14.352;2022-10-16T00:42:01;93628.44;;;11.20
64470;BMP280;50854;48.538;14.352;2022-10-16T00:43:02;93618.56;;;11.23
64470;BMP280;50854;48.538;14.352;2022-10-16T00:44:04;93620.75;;;11.24
64470;BMP280;50854;48.538;14.352;2022-10-16T00:45:22;93628.00;;;11.29
64470;BMP280;50854;48.538;14.352;2022-10-16T00:46:25;93631.97;;;11.28
64470;BMP280;50854;48.538;14.352;2022-10-16T00:47:30;93627.84;;;11.27
64470;BMP280;50854;48.538;14.352;2022-10-16T00:48:31;93632.50;;;11.27
64470;BMP280;50854;48.538;14.352;2022-10-16T00:49:31;93629.25;;;11.28
64470;BMP280;50854;48.538;14.352;2022-10-16T00:50:32;93632.16;;;11.30
64470;BMP280;50854;48.538;14.352;2022-10-16T00:51:37;93629.69;;;11.32
64470;BMP280;50854;48.538;14.352;2022-10-16T00:52:38;93631.44;;;11.30
64470;BMP280;50854;48.538;14.352;2022-10-16T00:53:39;93625.28;;;11.29
64470;BMP280;50854;48.538;14.352;2022-10-16T00:54:39;93626.88;;;11.25
64470;BMP280;50854;48.538;14.352;2022-10-16T00:55:39;93627.53;;;11.17
64470;BMP280;50854;48.538;14.352;2022-10-16T00:56:40;93625.44;;;11.10
64470;BMP280;50854;48.538;14.352;2022-10-16T00:57:40;93624.00;;;11.09
64470;BMP280;50854;48.538;14.352;2022-10-16T00:58:41;93618.50;;;11.02
64470;BMP280;50854;48.538;14.352;2022-10-16T00:59:41;93622.94;;;10.99
64470;BMP280;50854;48.538;14.352;2022-10-16T01:00:42;93624.19;;;10.98
64470;BMP280;50854;48.538;14.352;2022-10-16T01:01:42;93622.75;;;10.97
64470;BMP280;50854;48.538;14.352;2022-10-16T01:02:42;93630.34;;;10.99
64470;BMP280;50854;48.538;14.352;2022-10-16T01:03:43;93623.38;;;11.03
64470;BMP280;50854;48.538;14.352;2022-10-16T01:04:45;93623.06;;;11.07
64470;BMP280;50854;48.538;14.352;2022-10-16T01:05:49;93621.16;;;11.15
64470;BMP280;50854;48.538;14.352;2022-10-16T01:07:12;93629.06;;;11.13
64470;BMP280;50854;48.538;14.352;2022-10-16T01:08:18;93624.38;;;11.13
64470;BMP280;50854;48.538;14.352;2022-10-16T01:09:23;93622.09;;;11.04
64470;BMP280;50854;48.538;14.352;2022-10-16T01:13:41;93620.25;;;10.99
64470;BMP280;50854;48.538;14.352;2022-10-16T01:14:46;93620.25;;;10.99
64470;BMP280;50854;48.538;14.352;2022-10-16T01:16:57;93624.00;;;10.96
64470;BMP280;50854;48.538;14.352;2022-10-16T01:18:03;93620.44;;;11.14
64470;BMP280;50854;48.538;14.352;2022-10-16T01:19:08;93622.28;;;11.19
64470;BMP280;50854;48.538;14.352;2022-10-16T01:20:11;93622.22;;;11.12
64470;BMP280;50854;48.538;14.352;2022-10-16T01:21:14;93620.22;;;11.12
64470;BMP280;50854;48.538;14.352;2022-10-16T01:22:16;93623.50;;;11.11
64470;BMP280;50854;48.538;14.352;2022-10-16T01:24:40;93624.22;;;11.11
64470;BMP280;50854;48.538;14.352;2022-10-16T01:27:15;93616.91;;;11.06
64470;BMP280;50854;48.538;14.352;2022-10-16T01:28:18;93621.06;;;11.07
64470;BMP280;50854;48.538;14.352;2022-10-16T01:30:48;93620.88;;;11.05
64470;BMP280;50854;48.538;14.352;2022-10-16T01:31:52;93625.34;;;11.03
64470;BMP280;50854;48.538;14.352;2022-10-16T01:32:57;93628.06;;;11.03
64470;BMP280;50854;48.538;14.352;2022-10-16T01:34:20;93632.91;;;11.04
64470;BMP280;50854;48.538;14.352;2022-10-16T01:35:23;93634.41;;;11.05
64470;BMP280;50854;48.538;14.352;2022-10-16T01:36:26;93630.78;;;11.03
64470;BMP280;50854;48.538;14.352;2022-10-16T01:37:33;93634.06;;;11.09
64470;BMP280;50854;48.538;14.352;2022-10-16T01:38:35;93634.81;;;11.09
64470;BMP280;50854;48.538;14.352;2022-10-16T01:39:37;93633.88;;;11.07
64470;BMP280;50854;48.538;14.352;2022-10-16T01:40:39;93632.84;;;10.97
64470;BMP280;50854;48.538;14.352;2022-10-16T01:41:43;93632.44;;;10.93
64470;BMP280;50854;48.538;14.352;2022-10-16T01:42:48;93640.34;;;10.90
64470;BMP280;50854;48.538;14.352;2022-10-16T01:51:13;93648.13;;;10.81
64470;BMP280;50854;48.538;14.352;2022-10-16T01:53:15;93647.59;;;10.82
64470;BMP280;50854;48.538;14.352;2022-10-16T01:54:16;93653.72;;;10.83
64470;BMP280;50854;48.538;14.352;2022-10-16T01:55:20;93656.22;;;10.81
64470;BMP280;50854;48.538;14.352;2022-10-16T01:56:23;93657.47;;;10.80
64470;BMP280;50854;48.538;14.352;2022-10-16T01:57:24;93656.44;;;10.83
64470;BMP280;50854;48.538;14.352;2022-10-16T01:58:25;93656.44;;;10.83
64470;BMP280;50854;48.538;14.352;2022-10-16T01:59:27;93656.56;;;10.77
64470;BMP280;50854;48.538;14.352;2022-10-16T13:52:16;94013.16;;;21.22
64470;BMP280;50854;48.538;14.352;2022-10-16T13:53:17;94009.34;;;21.06
64470;BMP280;50854;48.538;14.352;2022-10-16T13:54:17;94017.44;;;21.04
64470;BMP280;50854;48.538;14.352;2022-10-16T13:55:18;94020.22;;;20.94
64470;BMP280;50854;48.538;14.352;2022-10-16T13:56:19;94013.53;;;21.07
64470;BMP280;50854;48.538;14.352;2022-10-16T13:57:21;94023.16;;;21.17
64470;BMP280;50854;48.538;14.352;2022-10-16T13:58:22;94025.81;;;21.15
64470;BMP280;50854;48.538;14.352;2022-10-16T13:59:23;94019.69;;;21.17
64470;BMP280;50854;48.538;14.352;2022-10-16T14:00:25;94020.59;;;21.19
64470;BMP280;50854;48.538;14.352;2022-10-16T14:01:31;94023.88;;;21.18
64470;BMP280;50854;48.538;14.352;2022-10-16T14:02:36;94026.63;;;21.18
64470;BMP280;50854;48.538;14.352;2022-10-16T14:03:38;94026.66;;;21.08
64470;BMP280;50854;48.538;14.352;2022-10-16T14:04:38;94026.44;;;20.95
64470;BMP280;50854;48.538;14.352;2022-10-16T14:05:46;94026.44;;;20.95
64470;BMP280;50854;48.538;14.352;2022-10-16T14:06:49;94023.38;;;21.00
64470;BMP280;50854;48.538;14.352;2022-10-16T14:07:50;94025.13;;;20.96
64470;BMP280;50854;48.538;14.352;2022-10-16T14:08:59;94028.03;;;20.88
64470;BMP280;50854;48.538;14.352;2022-10-16T14:10:02;94031.38;;;20.86
64470;BMP280;50854;48.538;14.352;2022-10-16T14:11:03;94020.09;;;20.82
64470;BMP280;50854;48.538;14.352;2022-10-16T14:12:07;94027.09;;;20.64
64470;BMP280;50854;48.538;14.352;2022-10-16T14:13:13;94027.38;;;20.59
64470;BMP280;50854;48.538;14.352;2022-10-16T14:14:15;94023.91;;;20.58
64470;BMP280;50854;48.538;14.352;2022-10-16T14:15:16;94027.41;;;20.49
64470;BMP280;50854;48.538;14.352;2022-10-16T14:16:21;94024.38;;;20.45
64470;BMP280;50854;48.538;14.352;2022-10-16T14:17:23;94028.41;;;20.44
64470;BMP280;50854;48.538;14.352;2022-10-16T14:18:24;94025.97;;;20.48
64470;BMP280;50854;48.538;14.352;2022-10-16T14:19:27;94039.09;;;20.49
64470;BMP280;50854;48.538;14.352;2022-10-16T14:20:29;94031.00;;;20.42
64470;BMP280;50854;48.538;14.352;2022-10-16T14:21:30;94038.50;;;20.41
64470;BMP280;50854;48.538;14.352;2022-10-16T14:22:35;94033.47;;;20.38
64470;BMP280;50854;48.538;14.352;2022-10-16T14:23:36;94033.63;;;20.40
64470;BMP280;50854;48.538;14.352;2022-10-16T14:24:37;94035.63;;;20.39
64470;BMP280;50854;48.538;14.352;2022-10-16T14:25:37;94035.63;;;20.39
64470;BMP280;50854;48.538;14.352;2022-10-16T14:26:44;94040.69;;;20.33
64470;BMP280;50854;48.538;14.352;2022-10-16T14:27:44;94044.03;;;20.32
64470;BMP280;50854;48.538;14.352;2022-10-16T14:28:45;94038.38;;;20.30
64470;BMP280;50854;48.538;14.352;2022-10-16T14:29:46;94034.34;;;20.11
64470;BMP280;50854;48.538;14.352;2022-10-16T14:30:55;94033.47;;;20.09
64470;BMP280;50854;48.538;14.352;2022-10-16T14:33:01;94045.88;;;19.91
64470;BMP280;50854;48.538;14.352;2022-10-16T14:34:01;94050.47;;;19.88
64470;BMP280;50854;48.538;14.352;2022-10-16T14:35:01;94041.22;;;19.83
64470;BMP280;50854;48.538;14.352;2022-10-16T14:36:06;94043.22;;;19.73
64470;BMP280;50854;48.538;14.352;2022-10-16T14:38:18;94048.84;;;19.66
64470;BMP280;50854;48.538;14.352;2022-10-16T14:39:20;94047.97;;;19.63
64470;BMP280;50854;48.538;14.352;2022-10-16T14:40:23;94044.34;;;19.61
64470;BMP280;50854;48.538;14.352;2022-10-16T14:41:23;94048.38;;;19.60
64470;BMP280;50854;48.538;14.352;2022-10-16T14:42:24;94041.16;;;19.55
64470;BMP280;50854;48.538;14.352;2022-10-16T14:43:35;94048.38;;;19.50
64470;BMP280;50854;48.538;14.352;2022-10-16T14:44:36;94044.28;;;19.41
64470;BMP280;50854;48.538;14.352;2022-10-16T14:45:39;94048.34;;;19.40
64470;BMP280;50854;48.538;14.352;2022-10-16T14:46:43;94051.06;;;19.40
64470;BMP280;50854;48.538;14.352;2022-10-16T14:47:47;94053.50;;;19.36
64470;BMP280;50854;48.538;14.352;2022-10-16T14:48:50;94053.50;;;19.36
64470;BMP280;50854;48.538;14.352;2022-10-16T14:49:51;94054.81;;;19.35
64470;BMP280;50854;48.538;14.352;2022-10-16T14:50:51;94054.94;;;19.28
64470;BMP280;50854;48.538;14.352;2022-10-16T14:51:52;94054.75;;;19.26
64470;BMP280;50854;48.538;14.352;2022-10-16T14:52:52;94047.41;;;19.28
64470;BMP280;50854;48.538;14.352;2022-10-16T14:53:52;94048.84;;;19.29
64470;BMP280;50854;48.538;14.352;2022-10-16T14:54:53;94046.84;;;19.30
64470;BMP280;50854;48.538;14.352;2022-10-16T14:55:56;94054.03;;;19.25
64470;BMP280;50854;48.538;14.352;2022-10-16T14:56:57;94044.03;;;19.20
64470;BMP280;50854;48.538;14.352;2022-10-16T14:57:57;94058.00;;;19.14
64470;BMP280;50854;48.538;14.352;2022-10-16T14:58:58;94049.47;;;19.10
64470;BMP280;50854;48.538;14.352;2022-10-16T14:59:58;94050.63;;;19.07
64470;BMP280;50854;48.538;14.352;2022-10-16T15:00:58;94053.19;;;19.05
64470;BMP280;50854;48.538;14.352;2022-10-16T15:01:58;94052.94;;;19.11
64470;BMP280;50854;48.538;14.352;2022-10-16T15:02:59;94052.81;;;19.09
64470;BMP280;50854;48.538;14.352;2022-10-16T15:03:59;94054.34;;;19.02
64470;BMP280;50854;48.538;14.352;2022-10-16T15:06:18;94053.78;;;19.04
64470;BMP280;50854;48.538;14.352;2022-10-16T15:07:18;94047.00;;;19.05
64470;BMP280;50854;48.538;14.352;2022-10-16T15:08:19;94050.44;;;19.05
64470;BMP280;50854;48.538;14.352;2022-10-16T15:09:19;94053.63;;;19.02
64470;BMP280;50854;48.538;14.352;2022-10-16T15:10:20;94050.31;;;19.03
64470;BMP280;50854;48.538;14.352;2022-10-16T15:11:20;94047.06;;;18.88
64470;BMP280;50854;48.538;14.352;2022-10-16T15:12:20;94042.22;;;18.78
64470;BMP280;50854;48.538;14.352;2022-10-16T15:13:21;94043.84;;;18.64
64470;BMP280;50854;48.538;14.352;2022-10-16T15:14:21;94041.25;;;18.57
64470;BMP280;50854;48.538;14.352;2022-10-16T15:16:22;94038.38;;;18.64
64470;BMP280;50854;48.538;14.352;2022-10-16T15:17:22;94034.06;;;18.61
64470;BMP280;50854;48.538;14.352;2022-10-16T15:18:23;94028.59;;;18.61
64470;BMP280;50854;48.538;14.352;2022-10-16T15:19:23;94027.88;;;18.61
64470;BMP280;50854;48.538;14.352;2022-10-16T15:20:24;94033.09;;;18.49
64470;BMP280;50854;48.538;14.352;2022-10-16T15:21:25;94037.63;;;18.54
64470;BMP280;50854;48.538;14.352;2022-10-16T15:22:26;94030.84;;;18.55
64470;BMP280;50854;48.538;14.352;2022-10-16T15:23:26;94033.09;;;18.49
64470;BMP280;50854;48.538;14.352;2022-10-16T15:24:27;94036.59;;;18.49
64470;BMP280;50854;48.538;14.352;2022-10-16T15:25:34;94033.59;;;18.55
64470;BMP280;50854;48.538;14.352;2022-10-16T15:26:35;94039.47;;;18.52
64470;BMP280;50854;48.538;14.352;2022-10-16T15:27:35;94036.31;;;18.55
64470;BMP280;50854;48.538;14.352;2022-10-16T15:28:39;94035.75;;;18.57
64470;BMP280;50854;48.538;14.352;2022-10-16T15:29:40;94039.78;;;18.56
64470;BMP280;50854;48.538;14.352;2022-10-16T15:30:40;94042.84;;;18.60
64470;BMP280;50854;48.538;14.352;2022-10-16T15:31:41;94052.28;;;18.49
64470;BMP280;50854;48.538;14.352;2022-10-16T15:32:42;94043.66;;;18.53
64470;BMP280;50854;48.538;14.352;2022-10-16T15:33:42;94045.50;;;18.50
64470;BMP280;50854;48.538;14.352;2022-10-16T15:34:43;94052.28;;;18.49
64470;BMP280;50854;48.538;14.352;2022-10-16T15:35:46;94050.81;;;18.48
64470;BMP280;50854;48.538;14.352;2022-10-16T15:36:46;94054.00;;;18.44
64470;BMP280;50854;48.538;14.352;2022-10-16T15:37:47;94050.19;;;18.40
64470;BMP280;50854;48.538;14.352;2022-10-16T15:38:48;94046.78;;;18.32
64470;BMP280;50854;48.538;14.352;2022-10-16T15:39:49;94040.19;;;18.17
64470;BMP280;50854;48.538;14.352;2022-10-16T15:40:50;94044.22;;;17.99
64470;BMP280;50854;48.538;14.352;2022-10-16T15:41:50;94036.63;;;17.90
64470;BMP280;50854;48.538;14.352;2022-10-16T15:42:53;94044.00;;;17.80
64470;BMP280;50854;48.538;14.352;2022-10-16T15:43:53;94036.03;;;17.74
64470;BMP280;50854;48.538;14.352;2022-10-16T15:44:53;94051.38;;;17.70
64470;BMP280;50854;48.538;14.352;2022-10-16T15:46:01;94045.91;;;17.70
64470;BMP280;50854;48.538;14.352;2022-10-16T15:47:01;94049.94;;;17.69
64470;BMP280;50854;48.538;14.352;2022-10-16T15:48:01;94053.97;;;17.68
64470;BMP280;50854;48.538;14.352;2022-10-16T15:49:02;94060.72;;;17.67
64470;BMP280;50854;48.538;14.352;2022-10-16T15:50:05;94053.78;;;17.66
64470;BMP280;50854;48.538;14.352;2022-10-16T15:51:06;94065.88;;;17.55
64470;BMP280;50854;48.538;14.352;2022-10-16T15:52:07;94062.50;;;17.47
64470;BMP280;50854;48.538;14.352;2022-10-16T15:53:08;94064.84;;;17.50
64470;BMP280;50854;48.538;14.352;2022-10-16T15:54:08;94061.38;;;17.50
64470;BMP280;50854;48.538;14.352;2022-10-16T15:55:09;94064.66;;;17.48
64470;BMP280;50854;48.538;14.352;2022-10-16T15:56:10;94067.25;;;17.46
64470;BMP280;50854;48.538;14.352;2022-10-16T15:57:11;94071.25;;;17.45
64470;BMP280;50854;48.538;14.352;2022-10-16T15:58:11;94077.50;;;17.38
64470;BMP280;50854;48.538;14.352;2022-10-16T15:59:11;94068.56;;;17.38
64470;BMP280;50854;48.538;14.352;2022-10-16T16:00:13;94066.44;;;17.29
64470;BMP280;50854;48.538;14.352;2022-10-16T16:01:13;94061.38;;;17.25
64470;BMP280;50854;48.538;14.352;2022-10-16T16:02:13;94071.41;;;17.23
64470;BMP280;50854;48.538;14.352;2022-10-16T16:03:14;94067.94;;;17.22
64470;BMP280;50854;48.538;14.352;2022-10-16T16:04:14;94063.41;;;17.17
64470;BMP280;50854;48.538;14.352;2022-10-16T16:05:15;94065.25;;;17.14
64470;BMP280;50854;48.538;14.352;2022-10-16T16:06:15;94061.09;;;17.06
64470;BMP280;50854;48.538;14.352;2022-10-16T16:07:15;94062.41;;;16.97
64470;BMP280;50854;48.538;14.352;2022-10-16T16:08:15;94063.91;;;16.91
64470;BMP280;50854;48.538;14.352;2022-10-16T16:09:16;94059.72;;;16.90
64470;BMP280;50854;48.538;14.352;2022-10-16T16:10:17;94063.22;;;16.82
64470;BMP280;50854;48.538;14.352;2022-10-16T16:11:18;94059.59;;;16.80
64470;BMP280;50854;48.538;14.352;2022-10-16T16:12:18;94066.69;;;16.75
64470;BMP280;50854;48.538;14.352;2022-10-16T16:13:18;94073.66;;;16.61
64470;BMP280;50854;48.538;14.352;2022-10-16T16:14:19;94075.16;;;16.62
64470;BMP280;50854;48.538;14.352;2022-10-16T16:15:19;94066.56;;;16.58
64470;BMP280;50854;48.538;14.352;2022-10-16T16:16:20;94073.50;;;16.59
64470;BMP280;50854;48.538;14.352;2022-10-16T16:17:20;94072.78;;;16.51
64470;BMP280;50854;48.538;14.352;2022-10-16T16:18:21;94072.09;;;16.43
64470;BMP280;50854;48.538;14.352;2022-10-16T16:19:21;94078.44;;;16.38
64470;BMP280;50854;48.538;14.352;2022-10-16T16:20:21;94077.91;;;16.39
64470;BMP280;50854;48.538;14.352;2022-10-16T16:21:22;94075.91;;;16.40
64470;BMP280;50854;48.538;14.352;2022-10-16T16:22:22;94084.81;;;16.40
64470;BMP280;50854;48.538;14.352;2022-10-16T16:23:22;94081.19;;;16.38
64470;BMP280;50854;48.538;14.352;2022-10-16T16:24:23;94076.63;;;16.40
64470;BMP280;50854;48.538;14.352;2022-10-16T16:25:23;94077.19;;;16.39
64470;BMP280;50854;48.538;14.352;2022-10-16T16:26:24;94086.44;;;16.43
64470;BMP280;50854;48.538;14.352;2022-10-16T16:27:31;94085.16;;;16.44
64470;BMP280;50854;48.538;14.352;2022-10-16T16:28:33;94079.16;;;16.46
64470;BMP280;50854;48.538;14.352;2022-10-16T16:29:34;94080.44;;;16.45
64470;BMP280;50854;48.538;14.352;2022-10-16T16:30:34;94081.34;;;16.47
64470;BMP280;50854;48.538;14.352;2022-10-16T16:31:35;94088.81;;;16.47
64470;BMP280;50854;48.538;14.352;2022-10-16T16:32:35;94086.25;;;16.41
64470;BMP280;50854;48.538;14.352;2022-10-16T16:33:35;94084.25;;;16.42
64470;BMP280;50854;48.538;14.352;2022-10-16T16:34:35;94093.00;;;16.40
64470;BMP280;50854;48.538;14.352;2022-10-16T16:35:36;94094.63;;;16.36
64470;BMP280;50854;48.538;14.352;2022-10-16T16:36:36;94088.28;;;16.26
64470;BMP280;50854;48.538;14.352;2022-10-16T16:37:36;94092.31;;;16.25
64470;BMP280;50854;48.538;14.352;2022-10-16T16:38:37;94096.84;;;16.22
64470;BMP280;50854;48.538;14.352;2022-10-16T16:39:37;94100.66;;;16.19
64470;BMP280;50854;48.538;14.352;2022-10-16T16:40:37;94099.75;;;16.16
64470;BMP280;50854;48.538;14.352;2022-10-16T16:41:37;94107.94;;;16.16
64470;BMP280;50854;48.538;14.352;2022-10-16T16:42:38;94103.59;;;16.13
64470;BMP280;50854;48.538;14.352;2022-10-16T16:43:38;94109.03;;;16.13
64470;BMP280;50854;48.538;14.352;2022-10-16T16:44:38;94108.84;;;16.11
64470;BMP280;50854;48.538;14.352;2022-10-16T16:45:38;94113.41;;;16.09
64470;BMP280;50854;48.538;14.352;2022-10-16T16:46:39;94113.75;;;16.05
64470;BMP280;50854;48.538;14.352;2022-10-16T16:47:39;94115.91;;;15.99
64470;BMP280;50854;48.538;14.352;2022-10-16T16:48:40;94110.13;;;15.95
64470;BMP280;50854;48.538;14.352;2022-10-16T16:49:41;94112.50;;;15.91
64470;BMP280;50854;48.538;14.352;2022-10-16T16:50:41;94115.56;;;15.87
64470;BMP280;50854;48.538;14.352;2022-10-16T16:51:41;94118.66;;;15.84
64470;BMP280;50854;48.538;14.352;2022-10-16T16:52:42;94117.56;;;15.79
64470;BMP280;50854;48.538;14.352;2022-10-16T16:53:42;94115.25;;;15.17
64470;BMP280;50854;48.538;14.352;2022-10-16T16:54:43;94119.13;;;14.85
64470;BMP280;50854;48.538;14.352;2022-10-16T16:55:44;94116.53;;;14.80
64470;BMP280;50854;48.538;14.352;2022-10-16T16:56:45;94116.00;;;14.81
64470;BMP280;50854;48.538;14.352;2022-10-16T16:57:47;94114.53;;;14.80
64470;BMP280;50854;48.538;14.352;2022-10-16T16:58:49;94110.38;;;14.79
64470;BMP280;50854;48.538;14.352;2022-10-16T16:59:49;94112.72;;;14.75
64470;BMP280;50854;48.538;14.352;2022-10-16T17:00:50;94115.44;;;14.75
64470;BMP280;50854;48.538;14.352;2022-10-16T17:01:50;94117.41;;;14.75
64470;BMP280;50854;48.538;14.352;2022-10-16T17:02:51;94119.41;;;14.74
64470;BMP280;50854;48.538;14.352;2022-10-16T17:03:52;94125.59;;;14.75
64470;BMP280;50854;48.538;14.352;2022-10-16T17:04:52;94110.72;;;14.76
64470;BMP280;50854;48.538;14.352;2022-10-16T17:05:57;94122.88;;;14.75
64470;BMP280;50854;48.538;14.352;2022-10-16T17:06:57;94119.41;;;14.74
64470;BMP280;50854;48.538;14.352;2022-10-16T17:07:57;94126.69;;;14.79
64470;BMP280;50854;48.538;14.352;2022-10-16T17:08:58;94116.53;;;14.80
64470;BMP280;50854;48.538;14.352;2022-10-16T17:09:58;94120.19;;;14.82
64470;BMP280;50854;48.538;14.352;2022-10-16T17:10:58;94125.81;;;14.84
64470;BMP280;50854;48.538;14.352;2022-10-16T17:11:59;94130.19;;;14.87
64470;BMP280;50854;48.538;14.352;2022-10-16T17:12:59;94131.44;;;14.86
64470;BMP280;50854;48.538;14.352;2022-10-16T17:14:00;94129.06;;;14.83
64470;BMP280;50854;48.538;14.352;2022-10-16T17:15:00;94130.88;;;14.80
64470;BMP280;50854;48.538;14.352;2022-10-16T17:16:00;94135.00;;;14.74
64470;BMP280;50854;48.538;14.352;2022-10-16T17:17:01;94136.31;;;14.44
64470;BMP280;50854;48.538;14.352;2022-10-16T17:18:01;94137.41;;;14.49
64470;BMP280;50854;48.538;14.352;2022-10-16T17:19:02;94135.28;;;14.55
64470;BMP280;50854;48.538;14.352;2022-10-16T17:20:03;94141.28;;;14.61
64470;BMP280;50854;48.538;14.352;2022-10-16T17:21:05;94144.59;;;14.67
64470;BMP280;50854;48.538;14.352;2022-10-16T17:22:05;94141.72;;;14.73
64470;BMP280;50854;48.538;14.352;2022-10-16T17:23:06;94150.78;;;14.75
64470;BMP280;50854;48.538;14.352;2022-10-16T17:24:06;94149.91;;;14.80
64470;BMP280;50854;48.538;14.352;2022-10-16T17:25:06;94152.09;;;14.82
64470;BMP280;50854;48.538;14.352;2022-10-16T17:26:14;94151.03;;;14.85
64470;BMP280;50854;48.538;14.352;2022-10-16T17:27:14;94151.22;;;14.87
64470;BMP280;50854;48.538;14.352;2022-10-16T17:28:15;94161.91;;;14.85
64470;BMP280;50854;48.538;14.352;2022-10-16T17:29:15;94165.38;;;14.85
64470;BMP280;50854;48.538;14.352;2022-10-16T17:30:17;94166.81;;;14.86
64470;BMP280;50854;48.538;14.352;2022-10-16T17:31:18;94162.84;;;14.87
64470;BMP280;50854;48.538;14.352;2022-10-16T17:32:19;94166.63;;;14.84
64470;BMP280;50854;48.538;14.352;2022-10-16T17:33:20;94165.91;;;14.84
64470;BMP280;50854;48.538;14.352;2022-10-16T17:34:20;94163.88;;;14.77
64470;BMP280;50854;48.538;14.352;2022-10-16T17:35:20;94167.13;;;14.75
64470;BMP280;50854;48.538;14.352;2022-10-16T17:36:21;94164.00;;;14.71
64470;BMP280;50854;48.538;14.352;2022-10-16T17:37:22;94165.63;;;14.67
64470;BMP280;50854;48.538;14.352;2022-10-16T17:38:23;94165.22;;;14.63
64470;BMP280;50854;48.538;14.352;2022-10-16T17:39:23;94158.16;;;14.59
64470;BMP280;50854;48.538;14.352;2022-10-16T17:40:24;94172.97;;;14.58
64470;BMP280;50854;48.538;14.352;2022-10-16T17:41:25;94161.75;;;14.54
64470;BMP280;50854;48.538;14.352;2022-10-16T17:42:25;94162.47;;;14.55
64470;BMP280;50854;48.538;14.352;2022-10-16T17:43:25;94166.97;;;14.52
64470;BMP280;50854;48.538;14.352;2022-10-16T17:44:25;94165.84;;;14.48
64470;BMP280;50854;48.538;14.352;2022-10-16T17:45:26;94169.97;;;14.41
64470;BMP280;50854;48.538;14.352;2022-10-16T17:46:26;94172.84;;;14.36
64470;BMP280;50854;48.538;14.352;2022-10-16T17:47:27;94165.84;;;14.27
64470;BMP280;50854;48.538;14.352;2022-10-16T17:48:27;94171.13;;;14.25
64470;BMP280;50854;48.538;14.352;2022-10-16T17:49:27;94172.88;;;14.22
64470;BMP280;50854;48.538;14.352;2022-10-16T17:50:27;94175.25;;;14.18
64470;BMP280;50854;48.538;14.352;2022-10-16T17:51:29;94174.81;;;14.14
64470;BMP280;50854;48.538;14.352;2022-10-16T17:52:29;94170.06;;;14.07
64470;BMP280;50854;48.538;14.352;2022-10-16T17:53:29;94167.22;;;13.92
64470;BMP280;50854;48.538;14.352;2022-10-16T17:54:29;94179.13;;;13.89
64470;BMP280;50854;48.538;14.352;2022-10-16T17:55:30;94170.16;;;13.81
64470;BMP280;50854;48.538;14.352;2022-10-16T17:56:30;94171.94;;;13.78
64470;BMP280;50854;48.538;14.352;2022-10-16T17:57:30;94176.78;;;13.72
64470;BMP280;50854;48.538;14.352;2022-10-16T17:58:30;94175.25;;;13.63
64470;BMP280;50854;48.538;14.352;2022-10-16T17:59:31;94178.25;;;13.60
64470;BMP280;50854;48.538;14.352;2022-10-16T18:00:32;94185.69;;;13.59
64470;BMP280;50854;48.538;14.352;2022-10-16T18:01:33;94179.25;;;13.49
64470;BMP280;50854;48.538;14.352;2022-10-16T18:02:34;94185.00;;;13.32